Aviation Digital Data Service (ADDS)

Output produced by METARs form (1159 UTC 08 December 2016)
found at http://aviationweather.gov/adds/metars/
 
KFKL 081122Z 0812/0912 26012G22KT P6SM SCT015 OVC025 
     TEMPO 0812/0815 BKN015 
     FM090600 25010G20KT 2SM -SHSN OVC025 AMD NOT SKED